Terminal Aerodrome Forecast
Issued by NWS Green Bay, WI

Home | Current Version | Previous Version | Graphics & Text | Print | Product List | Glossary On
Versions: 1 2 3 4 5 6 7 8 9 10 11 12 13 14 15 16 17 18 19 20 21 22 23 24 25 26
000
FTUS43 KGRB 291700
TAFGRB
TAF
KGRB 291726Z 2918/3018 02011G19KT P6SM VCSH BKN006 OVC012
      TEMPO 2918/2920 4SM -SHRA BR SCT006 OVC012
     FM292000 02011G19KT P6SM SCT012 OVC025
      TEMPO 2920/2924 BKN012
     FM300000 02010G18KT P6SM BKN020
     FM300700 36010KT P6SM BKN015
     FM301400 03008KT P6SM BKN025=

USA.gov is the U.S. government's official web portal to all federal, state and local government web resources and services.